sensor_id;sensor_type;location;lat;lon;timestamp;P1;durP1;ratioP1;P2;durP2;ratioP2
16662;SDS011;8445;51.270;9.434;2023-05-07T00:00:45;22.90;;;20.25;;
16662;SDS011;8445;51.270;9.434;2023-05-07T00:03:11;23.38;;;20.83;;
16662;SDS011;8445;51.270;9.434;2023-05-07T00:05:38;24.88;;;22.17;;
16662;SDS011;8445;51.270;9.434;2023-05-07T00:08:04;24.30;;;21.70;;
16662;SDS011;8445;51.270;9.434;2023-05-07T00:10:30;24.73;;;21.77;;
16662;SDS011;8445;51.270;9.434;2023-05-07T00:12:55;23.58;;;21.13;;
16662;SDS011;8445;51.270;9.434;2023-05-07T00:15:21;25.05;;;22.35;;
16662;SDS011;8445;51.270;9.434;2023-05-07T00:17:46;25.65;;;19.85;;
16662;SDS011;8445;51.270;9.434;2023-05-07T00:20:12;24.88;;;22.33;;
16662;SDS011;8445;51.270;9.434;2023-05-07T00:22:37;27.35;;;22.00;;
16662;SDS011;8445;51.270;9.434;2023-05-07T00:25:03;26.25;;;22.10;;
16662;SDS011;8445;51.270;9.434;2023-05-07T00:27:29;26.33;;;22.38;;
16662;SDS011;8445;51.270;9.434;2023-05-07T00:29:54;26.23;;;23.15;;
16662;SDS011;8445;51.270;9.434;2023-05-07T00:32:20;24.65;;;21.63;;
16662;SDS011;8445;51.270;9.434;2023-05-07T00:34:45;25.13;;;21.88;;
16662;SDS011;8445;51.270;9.434;2023-05-07T00:37:10;24.33;;;21.13;;
16662;SDS011;8445;51.270;9.434;2023-05-07T00:39:37;23.25;;;20.33;;
16662;SDS011;8445;51.270;9.434;2023-05-07T00:42:02;26.13;;;21.13;;
16662;SDS011;8445;51.270;9.434;2023-05-07T00:44:28;24.23;;;21.60;;
16662;SDS011;8445;51.270;9.434;2023-05-07T00:46:55;24.70;;;20.92;;
16662;SDS011;8445;51.270;9.434;2023-05-07T00:49:22;27.02;;;21.42;;
16662;SDS011;8445;51.270;9.434;2023-05-07T00:52:00;24.77;;;21.60;;
16662;SDS011;8445;51.270;9.434;2023-05-07T00:54:26;26.70;;;21.92;;
16662;SDS011;8445;51.270;9.434;2023-05-07T00:56:52;25.73;;;22.08;;
16662;SDS011;8445;51.270;9.434;2023-05-07T00:59:17;24.40;;;21.80;;
16662;SDS011;8445;51.270;9.434;2023-05-07T01:01:43;24.15;;;21.08;;
16662;SDS011;8445;51.270;9.434;2023-05-07T01:04:09;27.40;;;22.33;;
16662;SDS011;8445;51.270;9.434;2023-05-07T01:06:34;27.27;;;22.83;;
16662;SDS011;8445;51.270;9.434;2023-05-07T01:09:00;25.00;;;22.23;;
16662;SDS011;8445;51.270;9.434;2023-05-07T01:11:26;30.88;;;21.98;;
16662;SDS011;8445;51.270;9.434;2023-05-07T01:13:51;26.83;;;22.42;;
16662;SDS011;8445;51.270;9.434;2023-05-07T01:16:17;25.48;;;22.50;;
16662;SDS011;8445;51.270;9.434;2023-05-07T01:18:43;25.65;;;22.50;;
16662;SDS011;8445;51.270;9.434;2023-05-07T01:21:10;28.17;;;22.70;;
16662;SDS011;8445;51.270;9.434;2023-05-07T01:23:36;29.85;;;24.40;;
16662;SDS011;8445;51.270;9.434;2023-05-07T01:26:03;30.85;;;24.30;;
16662;SDS011;8445;51.270;9.434;2023-05-07T01:28:31;28.55;;;24.48;;
16662;SDS011;8445;51.270;9.434;2023-05-07T01:31:03;30.98;;;24.30;;
16662;SDS011;8445;51.270;9.434;2023-05-07T01:33:33;33.35;;;25.08;;
16662;SDS011;8445;51.270;9.434;2023-05-07T01:36:01;30.05;;;25.45;;
16662;SDS011;8445;51.270;9.434;2023-05-07T01:38:31;32.78;;;24.15;;
16662;SDS011;8445;51.270;9.434;2023-05-07T01:40:57;27.73;;;23.55;;
16662;SDS011;8445;51.270;9.434;2023-05-07T01:43:24;25.73;;;22.73;;
16662;SDS011;8445;51.270;9.434;2023-05-07T01:45:50;28.45;;;24.17;;
16662;SDS011;8445;51.270;9.434;2023-05-07T01:48:16;33.20;;;24.45;;
16662;SDS011;8445;51.270;9.434;2023-05-07T01:50:43;28.90;;;25.10;;
16662;SDS011;8445;51.270;9.434;2023-05-07T01:53:09;32.70;;;25.38;;
16662;SDS011;8445;51.270;9.434;2023-05-07T01:55:35;32.17;;;25.50;;
16662;SDS011;8445;51.270;9.434;2023-05-07T01:58:02;28.25;;;24.63;;
16662;SDS011;8445;51.270;9.434;2023-05-07T02:00:28;29.90;;;24.67;;
16662;SDS011;8445;51.270;9.434;2023-05-07T02:02:54;32.85;;;25.27;;
16662;SDS011;8445;51.270;9.434;2023-05-07T02:05:28;30.50;;;25.08;;
16662;SDS011;8445;51.270;9.434;2023-05-07T02:07:59;31.13;;;25.75;;
16662;SDS011;8445;51.270;9.434;2023-05-07T02:10:29;33.33;;;26.45;;
16662;SDS011;8445;51.270;9.434;2023-05-07T02:12:54;30.17;;;25.60;;
16662;SDS011;8445;51.270;9.434;2023-05-07T02:15:20;32.28;;;27.00;;
16662;SDS011;8445;51.270;9.434;2023-05-07T02:17:58;33.42;;;26.73;;
16662;SDS011;8445;51.270;9.434;2023-05-07T02:20:26;35.28;;;27.15;;
16662;SDS011;8445;51.270;9.434;2023-05-07T02:22:51;31.88;;;26.42;;
16662;SDS011;8445;51.270;9.434;2023-05-07T02:25:17;33.53;;;26.25;;
16662;SDS011;8445;51.270;9.434;2023-05-07T02:27:42;32.65;;;26.58;;
16662;SDS011;8445;51.270;9.434;2023-05-07T02:30:10;29.65;;;25.73;;
16662;SDS011;8445;51.270;9.434;2023-05-07T02:32:36;29.77;;;24.45;;
16662;SDS011;8445;51.270;9.434;2023-05-07T02:35:02;36.95;;;26.65;;
16662;SDS011;8445;51.270;9.434;2023-05-07T02:37:28;35.80;;;27.23;;
16662;SDS011;8445;51.270;9.434;2023-05-07T02:39:53;29.75;;;26.05;;
16662;SDS011;8445;51.270;9.434;2023-05-07T02:42:18;32.83;;;26.50;;
16662;SDS011;8445;51.270;9.434;2023-05-07T02:44:44;32.95;;;26.27;;
16662;SDS011;8445;51.270;9.434;2023-05-07T02:47:10;31.92;;;26.83;;
16662;SDS011;8445;51.270;9.434;2023-05-07T02:49:40;35.08;;;29.05;;
16662;SDS011;8445;51.270;9.434;2023-05-07T02:52:07;36.72;;;28.20;;
16662;SDS011;8445;51.270;9.434;2023-05-07T02:54:33;34.33;;;28.13;;
16662;SDS011;8445;51.270;9.434;2023-05-07T02:56:58;31.75;;;27.63;;
16662;SDS011;8445;51.270;9.434;2023-05-07T02:59:26;33.05;;;27.73;;
16662;SDS011;8445;51.270;9.434;2023-05-07T03:01:53;36.08;;;28.83;;
16662;SDS011;8445;51.270;9.434;2023-05-07T03:04:19;37.60;;;29.70;;
16662;SDS011;8445;51.270;9.434;2023-05-07T03:06:45;34.38;;;28.10;;
16662;SDS011;8445;51.270;9.434;2023-05-07T03:09:11;37.90;;;28.65;;
16662;SDS011;8445;51.270;9.434;2023-05-07T03:11:36;37.05;;;27.40;;
16662;SDS011;8445;51.270;9.434;2023-05-07T03:14:02;33.42;;;28.60;;
16662;SDS011;8445;51.270;9.434;2023-05-07T03:16:27;32.70;;;27.17;;
16662;SDS011;8445;51.270;9.434;2023-05-07T03:18:53;33.97;;;27.70;;
16662;SDS011;8445;51.270;9.434;2023-05-07T03:21:18;36.70;;;27.83;;
16662;SDS011;8445;51.270;9.434;2023-05-07T03:23:44;32.55;;;28.42;;
16662;SDS011;8445;51.270;9.434;2023-05-07T03:26:09;35.42;;;27.38;;
16662;SDS011;8445;51.270;9.434;2023-05-07T03:28:34;31.60;;;27.40;;
16662;SDS011;8445;51.270;9.434;2023-05-07T03:31:03;31.30;;;27.67;;
16662;SDS011;8445;51.270;9.434;2023-05-07T03:33:30;38.47;;;28.55;;
16662;SDS011;8445;51.270;9.434;2023-05-07T03:35:58;35.80;;;27.90;;
16662;SDS011;8445;51.270;9.434;2023-05-07T03:38:25;35.92;;;28.42;;
16662;SDS011;8445;51.270;9.434;2023-05-07T03:40:50;35.83;;;27.48;;
16662;SDS011;8445;51.270;9.434;2023-05-07T03:43:16;34.25;;;26.42;;
16662;SDS011;8445;51.270;9.434;2023-05-07T03:45:46;33.30;;;26.60;;
16662;SDS011;8445;51.270;9.434;2023-05-07T03:48:19;34.35;;;27.75;;
16662;SDS011;8445;51.270;9.434;2023-05-07T03:50:46;34.33;;;27.83;;
16662;SDS011;8445;51.270;9.434;2023-05-07T03:53:15;37.90;;;28.00;;
16662;SDS011;8445;51.270;9.434;2023-05-07T03:55:43;34.55;;;27.55;;
16662;SDS011;8445;51.270;9.434;2023-05-07T03:58:11;32.40;;;26.27;;
16662;SDS011;8445;51.270;9.434;2023-05-07T04:00:37;36.47;;;28.98;;
16662;SDS011;8445;51.270;9.434;2023-05-07T04:03:12;36.95;;;28.10;;
16662;SDS011;8445;51.270;9.434;2023-05-07T04:05:38;39.17;;;29.67;;
16662;SDS011;8445;51.270;9.434;2023-05-07T04:08:03;35.35;;;28.17;;
16662;SDS011;8445;51.270;9.434;2023-05-07T04:10:37;36.55;;;28.13;;
16662;SDS011;8445;51.270;9.434;2023-05-07T04:13:09;34.95;;;28.52;;
16662;SDS011;8445;51.270;9.434;2023-05-07T04:15:35;33.78;;;27.35;;
16662;SDS011;8445;51.270;9.434;2023-05-07T04:18:03;33.53;;;27.65;;
16662;SDS011;8445;51.270;9.434;2023-05-07T04:20:31;35.25;;;27.63;;
16662;SDS011;8445;51.270;9.434;2023-05-07T04:23:02;32.40;;;26.33;;
16662;SDS011;8445;51.270;9.434;2023-05-07T04:25:28;29.98;;;25.30;;
16662;SDS011;8445;51.270;9.434;2023-05-07T04:28:00;33.95;;;26.73;;
16662;SDS011;8445;51.270;9.434;2023-05-07T04:30:27;34.72;;;26.80;;
16662;SDS011;8445;51.270;9.434;2023-05-07T04:32:52;30.33;;;25.80;;
16662;SDS011;8445;51.270;9.434;2023-05-07T04:35:18;34.65;;;26.42;;
16662;SDS011;8445;51.270;9.434;2023-05-07T04:37:44;32.22;;;25.40;;
16662;SDS011;8445;51.270;9.434;2023-05-07T04:40:10;33.20;;;25.80;;
16662;SDS011;8445;51.270;9.434;2023-05-07T04:42:35;32.78;;;26.35;;
16662;SDS011;8445;51.270;9.434;2023-05-07T04:45:02;35.03;;;26.98;;
16662;SDS011;8445;51.270;9.434;2023-05-07T04:47:30;34.67;;;27.13;;
16662;SDS011;8445;51.270;9.434;2023-05-07T04:49:57;34.60;;;25.40;;
16662;SDS011;8445;51.270;9.434;2023-05-07T04:52:23;33.35;;;25.40;;
16662;SDS011;8445;51.270;9.434;2023-05-07T04:54:49;34.08;;;27.67;;
16662;SDS011;8445;51.270;9.434;2023-05-07T04:57:14;29.88;;;23.90;;
16662;SDS011;8445;51.270;9.434;2023-05-07T04:59:43;30.27;;;25.75;;
16662;SDS011;8445;51.270;9.434;2023-05-07T05:02:12;27.58;;;22.60;;
16662;SDS011;8445;51.270;9.434;2023-05-07T05:04:38;27.58;;;22.05;;
16662;SDS011;8445;51.270;9.434;2023-05-07T05:07:04;28.00;;;23.08;;
16662;SDS011;8445;51.270;9.434;2023-05-07T05:09:30;28.50;;;23.73;;
16662;SDS011;8445;51.270;9.434;2023-05-07T05:11:55;28.27;;;23.55;;
16662;SDS011;8445;51.270;9.434;2023-05-07T05:14:21;29.27;;;23.23;;
16662;SDS011;8445;51.270;9.434;2023-05-07T05:16:46;26.65;;;22.40;;
16662;SDS011;8445;51.270;9.434;2023-05-07T05:19:12;25.48;;;22.00;;
16662;SDS011;8445;51.270;9.434;2023-05-07T05:21:40;26.80;;;22.38;;
16662;SDS011;8445;51.270;9.434;2023-05-07T05:24:08;25.45;;;21.83;;
16662;SDS011;8445;51.270;9.434;2023-05-07T05:26:34;29.17;;;22.73;;
16662;SDS011;8445;51.270;9.434;2023-05-07T05:29:00;23.90;;;20.15;;
16662;SDS011;8445;51.270;9.434;2023-05-07T05:31:28;23.10;;;20.02;;
16662;SDS011;8445;51.270;9.434;2023-05-07T05:33:53;24.50;;;20.40;;
16662;SDS011;8445;51.270;9.434;2023-05-07T05:36:19;23.08;;;19.73;;
16662;SDS011;8445;51.270;9.434;2023-05-07T05:38:46;25.48;;;19.90;;
16662;SDS011;8445;51.270;9.434;2023-05-07T05:41:12;26.92;;;20.75;;
16662;SDS011;8445;51.270;9.434;2023-05-07T05:43:38;23.58;;;19.67;;
16662;SDS011;8445;51.270;9.434;2023-05-07T05:46:03;24.90;;;20.55;;
16662;SDS011;8445;51.270;9.434;2023-05-07T05:48:29;24.90;;;19.55;;
16662;SDS011;8445;51.270;9.434;2023-05-07T05:50:56;22.48;;;19.13;;
16662;SDS011;8445;51.270;9.434;2023-05-07T05:53:21;26.15;;;19.58;;
16662;SDS011;8445;51.270;9.434;2023-05-07T05:55:47;22.80;;;18.42;;
16662;SDS011;8445;51.270;9.434;2023-05-07T05:58:12;20.45;;;17.55;;
16662;SDS011;8445;51.270;9.434;2023-05-07T06:00:42;23.00;;;19.30;;
16662;SDS011;8445;51.270;9.434;2023-05-07T06:03:09;22.67;;;19.50;;
16662;SDS011;8445;51.270;9.434;2023-05-07T06:05:42;20.27;;;18.00;;
16662;SDS011;8445;51.270;9.434;2023-05-07T06:08:08;17.90;;;16.00;;
16662;SDS011;8445;51.270;9.434;2023-05-07T06:10:35;22.15;;;18.45;;
16662;SDS011;8445;51.270;9.434;2023-05-07T06:13:06;18.95;;;16.27;;
16662;SDS011;8445;51.270;9.434;2023-05-07T06:15:33;18.13;;;15.07;;
16662;SDS011;8445;51.270;9.434;2023-05-07T06:18:06;15.77;;;14.02;;
16662;SDS011;8445;51.270;9.434;2023-05-07T06:20:36;15.85;;;13.25;;
16662;SDS011;8445;51.270;9.434;2023-05-07T06:23:10;15.40;;;13.15;;
16662;SDS011;8445;51.270;9.434;2023-05-07T06:25:35;17.02;;;15.00;;
16662;SDS011;8445;51.270;9.434;2023-05-07T06:28:03;18.42;;;15.30;;
16662;SDS011;8445;51.270;9.434;2023-05-07T06:30:29;18.05;;;14.63;;
16662;SDS011;8445;51.270;9.434;2023-05-07T06:32:55;15.68;;;13.05;;
16662;SDS011;8445;51.270;9.434;2023-05-07T06:35:21;15.70;;;13.63;;
16662;SDS011;8445;51.270;9.434;2023-05-07T06:37:47;18.08;;;13.50;;
16662;SDS011;8445;51.270;9.434;2023-05-07T06:40:17;15.60;;;13.23;;
16662;SDS011;8445;51.270;9.434;2023-05-07T06:42:44;16.55;;;13.77;;
16662;SDS011;8445;51.270;9.434;2023-05-07T06:45:32;16.10;;;12.93;;
16662;SDS011;8445;51.270;9.434;2023-05-07T06:47:58;14.60;;;13.13;;
16662;SDS011;8445;51.270;9.434;2023-05-07T06:50:24;15.00;;;13.30;;
16662;SDS011;8445;51.270;9.434;2023-05-07T06:52:53;13.45;;;12.05;;
16662;SDS011;8445;51.270;9.434;2023-05-07T06:55:18;14.85;;;12.82;;
16662;SDS011;8445;51.270;9.434;2023-05-07T06:57:44;14.43;;;12.30;;
16662;SDS011;8445;51.270;9.434;2023-05-07T07:00:10;14.43;;;13.02;;
16662;SDS011;8445;51.270;9.434;2023-05-07T07:02:44;16.33;;;12.90;;
16662;SDS011;8445;51.270;9.434;2023-05-07T07:05:11;12.80;;;11.50;;
16662;SDS011;8445;51.270;9.434;2023-05-07T07:07:37;13.80;;;12.38;;
16662;SDS011;8445;51.270;9.434;2023-05-07T07:10:02;13.90;;;12.48;;
16662;SDS011;8445;51.270;9.434;2023-05-07T07:12:30;14.00;;;12.30;;
16662;SDS011;8445;51.270;9.434;2023-05-07T07:14:55;12.80;;;11.20;;
16662;SDS011;8445;51.270;9.434;2023-05-07T07:17:21;13.38;;;11.98;;
16662;SDS011;8445;51.270;9.434;2023-05-07T07:19:47;13.18;;;11.65;;
16662;SDS011;8445;51.270;9.434;2023-05-07T07:22:12;12.55;;;10.93;;
16662;SDS011;8445;51.270;9.434;2023-05-07T07:24:38;10.80;;;9.70;;
16662;SDS011;8445;51.270;9.434;2023-05-07T07:27:06;10.40;;;9.40;;
16662;SDS011;8445;51.270;9.434;2023-05-07T07:29:33;9.60;;;8.60;;
16662;SDS011;8445;51.270;9.434;2023-05-07T07:31:58;8.90;;;8.10;;
16662;SDS011;8445;51.270;9.434;2023-05-07T07:34:24;9.32;;;8.43;;
16662;SDS011;8445;51.270;9.434;2023-05-07T07:36:49;9.90;;;9.00;;
16662;SDS011;8445;51.270;9.434;2023-05-07T07:39:17;9.23;;;8.32;;
16662;SDS011;8445;51.270;9.434;2023-05-07T07:41:44;9.98;;;8.98;;
16662;SDS011;8445;51.270;9.434;2023-05-07T07:44:10;9.43;;;8.55;;
16662;SDS011;8445;51.270;9.434;2023-05-07T07:46:38;9.85;;;8.85;;
16662;SDS011;8445;51.270;9.434;2023-05-07T07:49:03;9.15;;;8.25;;
16662;SDS011;8445;51.270;9.434;2023-05-07T07:51:29;8.48;;;7.72;;
16662;SDS011;8445;51.270;9.434;2023-05-07T07:53:56;9.15;;;8.35;;
16662;SDS011;8445;51.270;9.434;2023-05-07T07:56:23;9.55;;;8.60;;
16662;SDS011;8445;51.270;9.434;2023-05-07T07:58:49;8.20;;;7.40;;
16662;SDS011;8445;51.270;9.434;2023-05-07T08:01:14;7.85;;;7.13;;
16662;SDS011;8445;51.270;9.434;2023-05-07T08:03:42;8.43;;;7.63;;
16662;SDS011;8445;51.270;9.434;2023-05-07T08:06:07;8.63;;;7.82;;
16662;SDS011;8445;51.270;9.434;2023-05-07T08:08:34;8.48;;;7.68;;
16662;SDS011;8445;51.270;9.434;2023-05-07T08:11:00;8.55;;;7.75;;
16662;SDS011;8445;51.270;9.434;2023-05-07T08:13:30;9.80;;;7.40;;
16662;SDS011;8445;51.270;9.434;2023-05-07T08:15:56;8.40;;;7.50;;
16662;SDS011;8445;51.270;9.434;2023-05-07T08:18:22;7.75;;;7.05;;
16662;SDS011;8445;51.270;9.434;2023-05-07T08:20:50;7.95;;;7.25;;
16662;SDS011;8445;51.270;9.434;2023-05-07T08:23:19;9.13;;;8.10;;
16662;SDS011;8445;51.270;9.434;2023-05-07T08:25:46;8.88;;;8.05;;
16662;SDS011;8445;51.270;9.434;2023-05-07T08:28:12;8.07;;;7.25;;
16662;SDS011;8445;51.270;9.434;2023-05-07T08:30:40;8.43;;;7.63;;
16662;SDS011;8445;51.270;9.434;2023-05-07T08:33:06;8.73;;;7.43;;
16662;SDS011;8445;51.270;9.434;2023-05-07T08:35:33;7.32;;;6.60;;
16662;SDS011;8445;51.270;9.434;2023-05-07T08:38:01;6.88;;;6.22;;
16662;SDS011;8445;51.270;9.434;2023-05-07T08:40:27;6.72;;;6.03;;
16662;SDS011;8445;51.270;9.434;2023-05-07T08:42:55;7.78;;;5.68;;
16662;SDS011;8445;51.270;9.434;2023-05-07T08:45:22;8.80;;;5.57;;
16662;SDS011;8445;51.270;9.434;2023-05-07T08:47:51;6.72;;;5.65;;
16662;SDS011;8445;51.270;9.434;2023-05-07T08:50:22;6.07;;;5.25;;
16662;SDS011;8445;51.270;9.434;2023-05-07T08:52:48;6.97;;;5.88;;
16662;SDS011;8445;51.270;9.434;2023-05-07T08:55:16;6.97;;;5.60;;
16662;SDS011;8445;51.270;9.434;2023-05-07T08:57:42;6.55;;;5.10;;
16662;SDS011;8445;51.270;9.434;2023-05-07T09:00:09;7.10;;;5.05;;
16662;SDS011;8445;51.270;9.434;2023-05-07T09:02:36;5.88;;;4.50;;
16662;SDS011;8445;51.270;9.434;2023-05-07T09:05:04;5.43;;;5.00;;
16662;SDS011;8445;51.270;9.434;2023-05-07T09:07:32;5.35;;;4.85;;
16662;SDS011;8445;51.270;9.434;2023-05-07T09:10:02;6.40;;;5.22;;
16662;SDS011;8445;51.270;9.434;2023-05-07T09:12:29;6.30;;;4.40;;
16662;SDS011;8445;51.270;9.434;2023-05-07T09:14:58;4.65;;;4.13;;
16662;SDS011;8445;51.270;9.434;2023-05-07T09:17:28;4.93;;;4.22;;
16662;SDS011;8445;51.270;9.434;2023-05-07T09:19:53;4.88;;;4.38;;
16662;SDS011;8445;51.270;9.434;2023-05-07T09:22:19;5.68;;;4.15;;
16662;SDS011;8445;51.270;9.434;2023-05-07T09:24:53;4.32;;;3.92;;
16662;SDS011;8445;51.270;9.434;2023-05-07T09:27:22;4.57;;;4.18;;
16662;SDS011;8445;51.270;9.434;2023-05-07T09:29:47;3.97;;;3.67;;
16662;SDS011;8445;51.270;9.434;2023-05-07T09:32:15;5.00;;;3.75;;
16662;SDS011;8445;51.270;9.434;2023-05-07T09:34:41;3.75;;;3.45;;
16662;SDS011;8445;51.270;9.434;2023-05-07T09:37:07;4.68;;;4.07;;
16662;SDS011;8445;51.270;9.434;2023-05-07T09:39:42;3.80;;;3.50;;
16662;SDS011;8445;51.270;9.434;2023-05-07T09:42:11;3.85;;;3.42;;
16662;SDS011;8445;51.270;9.434;2023-05-07T09:44:37;4.30;;;3.28;;
16662;SDS011;8445;51.270;9.434;2023-05-07T09:47:07;3.53;;;2.90;;
16662;SDS011;8445;51.270;9.434;2023-05-07T09:49:39;3.60;;;3.30;;
16662;SDS011;8445;51.270;9.434;2023-05-07T09:52:11;3.17;;;2.92;;
16662;SDS011;8445;51.270;9.434;2023-05-07T09:54:44;3.38;;;3.08;;
16662;SDS011;8445;51.270;9.434;2023-05-07T09:57:14;3.95;;;3.55;;
16662;SDS011;8445;51.270;9.434;2023-05-07T09:59:43;4.70;;;3.28;;
16662;SDS011;8445;51.270;9.434;2023-05-07T10:02:13;4.10;;;3.70;;
16662;SDS011;8445;51.270;9.434;2023-05-07T10:04:46;4.75;;;3.90;;
16662;SDS011;8445;51.270;9.434;2023-05-07T10:07:15;5.13;;;4.18;;
16662;SDS011;8445;51.270;9.434;2023-05-07T10:09:41;4.55;;;3.85;;
16662;SDS011;8445;51.270;9.434;2023-05-07T10:12:18;4.93;;;3.50;;
16662;SDS011;8445;51.270;9.434;2023-05-07T10:14:45;4.05;;;3.58;;
16662;SDS011;8445;51.270;9.434;2023-05-07T10:17:12;5.00;;;3.88;;
16662;SDS011;8445;51.270;9.434;2023-05-07T10:19:42;3.55;;;3.25;;
16662;SDS011;8445;51.270;9.434;2023-05-07T10:22:09;3.78;;;3.45;;
16662;SDS011;8445;51.270;9.434;2023-05-07T10:24:41;4.43;;;3.53;;
16662;SDS011;8445;51.270;9.434;2023-05-07T10:27:13;3.40;;;3.10;;
16662;SDS011;8445;51.270;9.434;2023-05-07T10:35:17;3.30;;;3.00;;
16662;SDS011;8445;51.270;9.434;2023-05-07T10:37:47;2.72;;;2.53;;
16662;SDS011;8445;51.270;9.434;2023-05-07T10:40:14;2.90;;;2.70;;
16662;SDS011;8445;51.270;9.434;2023-05-07T10:42:52;3.17;;;2.63;;
16662;SDS011;8445;51.270;9.434;2023-05-07T10:45:20;3.20;;;2.80;;
16662;SDS011;8445;51.270;9.434;2023-05-07T10:50:48;5.20;;;2.65;;
16662;SDS011;8445;51.270;9.434;2023-05-07T10:55:49;2.30;;;2.10;;
16662;SDS011;8445;51.270;9.434;2023-05-07T10:58:41;4.10;;;2.47;;
16662;SDS011;8445;51.270;9.434;2023-05-07T11:01:48;4.97;;;2.30;;
16662;SDS011;8445;51.270;9.434;2023-05-07T11:04:24;3.25;;;2.38;;
16662;SDS011;8445;51.270;9.434;2023-05-07T11:07:20;2.67;;;2.47;;
16662;SDS011;8445;51.270;9.434;2023-05-07T11:15:06;6.72;;;3.22;;
16662;SDS011;8445;51.270;9.434;2023-05-07T11:17:56;3.30;;;2.33;;
16662;SDS011;8445;51.270;9.434;2023-05-07T11:26:12;5.20;;;2.60;;
16662;SDS011;8445;51.270;9.434;2023-05-07T11:28:42;3.22;;;2.67;;
16662;SDS011;8445;51.270;9.434;2023-05-07T11:31:09;3.83;;;2.75;;
16662;SDS011;8445;51.270;9.434;2023-05-07T11:33:37;3.67;;;2.72;;
16662;SDS011;8445;51.270;9.434;2023-05-07T11:36:05;2.90;;;2.70;;
16662;SDS011;8445;51.270;9.434;2023-05-07T11:38:38;3.22;;;2.78;;
16662;SDS011;8445;51.270;9.434;2023-05-07T11:41:04;3.10;;;2.67;;
16662;SDS011;8445;51.270;9.434;2023-05-07T11:43:30;2.95;;;2.75;;
16662;SDS011;8445;51.270;9.434;2023-05-07T11:46:04;2.78;;;2.58;;
16662;SDS011;8445;51.270;9.434;2023-05-07T11:48:34;3.55;;;2.92;;
16662;SDS011;8445;51.270;9.434;2023-05-07T11:51:00;3.03;;;2.78;;
16662;SDS011;8445;51.270;9.434;2023-05-07T11:53:28;4.00;;;3.17;;
16662;SDS011;8445;51.270;9.434;2023-05-07T11:56:05;3.13;;;2.83;;
16662;SDS011;8445;51.270;9.434;2023-05-07T11:58:32;3.40;;;2.85;;
16662;SDS011;8445;51.270;9.434;2023-05-07T12:00:58;2.88;;;2.67;;
16662;SDS011;8445;51.270;9.434;2023-05-07T12:03:23;2.70;;;2.50;;
16662;SDS011;8445;51.270;9.434;2023-05-07T12:05:49;3.42;;;3.13;;
16662;SDS011;8445;51.270;9.434;2023-05-07T12:08:15;3.58;;;3.15;;
16662;SDS011;8445;51.270;9.434;2023-05-07T12:10:41;6.43;;;3.20;;
16662;SDS011;8445;51.270;9.434;2023-05-07T12:13:40;4.00;;;3.08;;
16662;SDS011;8445;51.270;9.434;2023-05-07T12:15:59;5.70;;;3.17;;
16662;SDS011;8445;51.270;9.434;2023-05-07T12:18:25;3.63;;;3.33;;
16662;SDS011;8445;51.270;9.434;2023-05-07T12:20:51;3.95;;;2.90;;
16662;SDS011;8445;51.270;9.434;2023-05-07T12:23:16;3.25;;;2.95;;
16662;SDS011;8445;51.270;9.434;2023-05-07T12:25:43;3.72;;;3.42;;
16662;SDS011;8445;51.270;9.434;2023-05-07T12:28:15;4.82;;;3.45;;
16662;SDS011;8445;51.270;9.434;2023-05-07T12:30:42;4.85;;;3.40;;
16662;SDS011;8445;51.270;9.434;2023-05-07T12:33:09;3.88;;;3.45;;
16662;SDS011;8445;51.270;9.434;2023-05-07T12:35:39;4.45;;;3.30;;
16662;SDS011;8445;51.270;9.434;2023-05-07T12:38:09;4.57;;;3.55;;
16662;SDS011;8445;51.270;9.434;2023-05-07T12:40:37;5.88;;;3.85;;
16662;SDS011;8445;51.270;9.434;2023-05-07T12:43:04;4.18;;;3.78;;
16662;SDS011;8445;51.270;9.434;2023-05-07T12:45:29;3.53;;;3.22;;
16662;SDS011;8445;51.270;9.434;2023-05-07T12:47:55;4.15;;;3.10;;
16662;SDS011;8445;51.270;9.434;2023-05-07T12:50:21;4.18;;;3.38;;
16662;SDS011;8445;51.270;9.434;2023-05-07T12:52:47;4.03;;;3.63;;
16662;SDS011;8445;51.270;9.434;2023-05-07T12:55:16;4.20;;;3.67;;
16662;SDS011;8445;51.270;9.434;2023-05-07T12:57:42;3.90;;;3.50;;
16662;SDS011;8445;51.270;9.434;2023-05-07T13:00:10;5.28;;;3.47;;
16662;SDS011;8445;51.270;9.434;2023-05-07T13:02:43;4.18;;;3.55;;
16662;SDS011;8445;51.270;9.434;2023-05-07T13:05:12;4.15;;;3.75;;
16662;SDS011;8445;51.270;9.434;2023-05-07T13:07:38;5.47;;;4.22;;
16662;SDS011;8445;51.270;9.434;2023-05-07T13:10:04;5.10;;;4.35;;
16662;SDS011;8445;51.270;9.434;2023-05-07T13:12:30;4.15;;;3.85;;
16662;SDS011;8445;51.270;9.434;2023-05-07T13:14:55;5.55;;;4.53;;
16662;SDS011;8445;51.270;9.434;2023-05-07T13:17:21;7.05;;;4.55;;
16662;SDS011;8445;51.270;9.434;2023-05-07T13:19:46;5.72;;;4.57;;
16662;SDS011;8445;51.270;9.434;2023-05-07T13:22:12;4.88;;;4.47;;
16662;SDS011;8445;51.270;9.434;2023-05-07T13:24:37;5.93;;;4.25;;
16662;SDS011;8445;51.270;9.434;2023-05-07T13:27:03;4.78;;;4.25;;
16662;SDS011;8445;51.270;9.434;2023-05-07T13:29:29;4.78;;;4.22;;
16662;SDS011;8445;51.270;9.434;2023-05-07T13:31:58;4.97;;;4.40;;
16662;SDS011;8445;51.270;9.434;2023-05-07T13:34:24;4.75;;;4.35;;
16662;SDS011;8445;51.270;9.434;2023-05-07T13:36:49;4.63;;;4.03;;
16662;SDS011;8445;51.270;9.434;2023-05-07T13:39:15;4.53;;;4.13;;
16662;SDS011;8445;51.270;9.434;2023-05-07T13:41:41;6.38;;;4.78;;
16662;SDS011;8445;51.270;9.434;2023-05-07T13:44:06;5.50;;;4.57;;
16662;SDS011;8445;51.270;9.434;2023-05-07T13:46:32;5.28;;;4.55;;
16662;SDS011;8445;51.270;9.434;2023-05-07T13:48:57;5.70;;;4.82;;
16662;SDS011;8445;51.270;9.434;2023-05-07T13:51:23;5.00;;;4.60;;
16662;SDS011;8445;51.270;9.434;2023-05-07T13:53:48;5.25;;;4.85;;
16662;SDS011;8445;51.270;9.434;2023-05-07T13:56:14;5.63;;;5.03;;
16662;SDS011;8445;51.270;9.434;2023-05-07T13:58:40;6.20;;;4.95;;
16662;SDS011;8445;51.270;9.434;2023-05-07T14:01:05;5.13;;;4.72;;
16662;SDS011;8445;51.270;9.434;2023-05-07T14:03:31;4.85;;;4.35;;
16662;SDS011;8445;51.270;9.434;2023-05-07T14:05:58;4.68;;;4.28;;
16662;SDS011;8445;51.270;9.434;2023-05-07T14:08:25;4.93;;;4.53;;
16662;SDS011;8445;51.270;9.434;2023-05-07T14:10:51;5.32;;;4.55;;
16662;SDS011;8445;51.270;9.434;2023-05-07T14:13:16;6.63;;;4.32;;
16662;SDS011;8445;51.270;9.434;2023-05-07T14:15:42;5.10;;;4.60;;
16662;SDS011;8445;51.270;9.434;2023-05-07T14:18:11;5.32;;;4.60;;
16662;SDS011;8445;51.270;9.434;2023-05-07T14:20:38;5.35;;;4.85;;
16662;SDS011;8445;51.270;9.434;2023-05-07T14:23:03;4.78;;;4.40;;
16662;SDS011;8445;51.270;9.434;2023-05-07T14:25:29;5.60;;;4.93;;
16662;SDS011;8445;51.270;9.434;2023-05-07T14:27:54;7.57;;;5.10;;
16662;SDS011;8445;51.270;9.434;2023-05-07T14:30:19;6.90;;;5.05;;
16662;SDS011;8445;51.270;9.434;2023-05-07T14:32:47;5.68;;;4.97;;
16662;SDS011;8445;51.270;9.434;2023-05-07T14:35:14;5.78;;;5.28;;
16662;SDS011;8445;51.270;9.434;2023-05-07T14:37:39;5.15;;;4.75;;
16662;SDS011;8445;51.270;9.434;2023-05-07T14:40:05;6.43;;;5.45;;
16662;SDS011;8445;51.270;9.434;2023-05-07T14:42:31;5.43;;;4.93;;
16662;SDS011;8445;51.270;9.434;2023-05-07T14:44:56;6.20;;;5.60;;
16662;SDS011;8445;51.270;9.434;2023-05-07T14:47:22;5.70;;;5.10;;
16662;SDS011;8445;51.270;9.434;2023-05-07T14:49:47;6.90;;;5.78;;
16662;SDS011;8445;51.270;9.434;2023-05-07T14:52:12;8.05;;;6.18;;
16662;SDS011;8445;51.270;9.434;2023-05-07T14:54:38;5.70;;;5.20;;
16662;SDS011;8445;51.270;9.434;2023-05-07T14:57:04;6.10;;;5.57;;
16662;SDS011;8445;51.270;9.434;2023-05-07T14:59:30;5.80;;;5.28;;
16662;SDS011;8445;51.270;9.434;2023-05-07T15:01:57;5.35;;;4.85;;
16662;SDS011;8445;51.270;9.434;2023-05-07T15:04:23;5.50;;;4.95;;
16662;SDS011;8445;51.270;9.434;2023-05-07T15:06:49;6.53;;;5.35;;
16662;SDS011;8445;51.270;9.434;2023-05-07T15:09:14;5.43;;;4.93;;
16662;SDS011;8445;51.270;9.434;2023-05-07T15:11:40;6.85;;;5.78;;